sensor_id;sensor_type;location;lat;lon;timestamp;P1;durP1;ratioP1;P2;durP2;ratioP2
61391;SDS011;47261;52.892;5.738;2023-03-14T00:00:45;15.03;;;2.63;;
61391;SDS011;47261;52.892;5.738;2023-03-14T00:03:10;13.73;;;2.42;;
61391;SDS011;47261;52.892;5.738;2023-03-14T00:05:36;19.07;;;3.30;;
61391;SDS011;47261;52.892;5.738;2023-03-14T00:08:02;14.13;;;2.97;;
61391;SDS011;47261;52.892;5.738;2023-03-14T00:10:27;17.23;;;2.53;;
61391;SDS011;47261;52.892;5.738;2023-03-14T00:12:53;14.75;;;2.80;;
61391;SDS011;47261;52.892;5.738;2023-03-14T00:15:19;18.63;;;3.97;;
61391;SDS011;47261;52.892;5.738;2023-03-14T00:17:44;16.53;;;2.83;;
61391;SDS011;47261;52.892;5.738;2023-03-14T00:20:10;14.20;;;2.40;;
61391;SDS011;47261;52.892;5.738;2023-03-14T00:22:40;16.48;;;2.80;;
61391;SDS011;47261;52.892;5.738;2023-03-14T00:25:07;13.27;;;2.23;;
61391;SDS011;47261;52.892;5.738;2023-03-14T00:27:34;17.13;;;3.05;;
61391;SDS011;47261;52.892;5.738;2023-03-14T00:29:59;12.10;;;2.30;;
61391;SDS011;47261;52.892;5.738;2023-03-14T00:32:25;13.73;;;1.93;;
61391;SDS011;47261;52.892;5.738;2023-03-14T00:34:51;13.85;;;2.20;;
61391;SDS011;47261;52.892;5.738;2023-03-14T00:37:16;17.17;;;2.80;;
61391;SDS011;47261;52.892;5.738;2023-03-14T00:39:42;7.57;;;1.30;;
61391;SDS011;47261;52.892;5.738;2023-03-14T00:42:08;11.47;;;2.03;;
61391;SDS011;47261;52.892;5.738;2023-03-14T00:44:33;15.95;;;2.63;;
61391;SDS011;47261;52.892;5.738;2023-03-14T00:46:59;18.17;;;3.10;;
61391;SDS011;47261;52.892;5.738;2023-03-14T00:49:25;14.07;;;2.85;;
61391;SDS011;47261;52.892;5.738;2023-03-14T00:51:51;16.93;;;3.27;;
61391;SDS011;47261;52.892;5.738;2023-03-14T00:54:17;15.60;;;3.22;;
61391;SDS011;47261;52.892;5.738;2023-03-14T00:56:43;12.15;;;2.83;;
61391;SDS011;47261;52.892;5.738;2023-03-14T00:59:09;15.57;;;3.37;;
61391;SDS011;47261;52.892;5.738;2023-03-14T01:01:35;16.20;;;2.95;;
61391;SDS011;47261;52.892;5.738;2023-03-14T01:04:01;14.95;;;2.58;;
61391;SDS011;47261;52.892;5.738;2023-03-14T01:06:27;13.75;;;2.08;;
61391;SDS011;47261;52.892;5.738;2023-03-14T01:08:55;16.77;;;2.33;;
61391;SDS011;47261;52.892;5.738;2023-03-14T01:11:25;16.98;;;2.40;;
61391;SDS011;47261;52.892;5.738;2023-03-14T01:13:53;15.85;;;2.70;;
61391;SDS011;47261;52.892;5.738;2023-03-14T01:16:20;11.75;;;1.70;;
61391;SDS011;47261;52.892;5.738;2023-03-14T01:18:47;10.95;;;2.00;;
61391;SDS011;47261;52.892;5.738;2023-03-14T01:21:15;15.07;;;1.80;;
61391;SDS011;47261;52.892;5.738;2023-03-14T01:23:41;16.80;;;2.55;;
61391;SDS011;47261;52.892;5.738;2023-03-14T01:26:14;13.70;;;1.90;;
61391;SDS011;47261;52.892;5.738;2023-03-14T01:28:41;14.48;;;1.92;;
61391;SDS011;47261;52.892;5.738;2023-03-14T01:31:08;9.60;;;1.85;;
61391;SDS011;47261;52.892;5.738;2023-03-14T01:33:35;12.20;;;2.17;;
61391;SDS011;47261;52.892;5.738;2023-03-14T01:36:01;13.43;;;2.35;;
61391;SDS011;47261;52.892;5.738;2023-03-14T01:38:31;12.70;;;2.50;;
61391;SDS011;47261;52.892;5.738;2023-03-14T01:40:58;10.20;;;1.50;;
61391;SDS011;47261;52.892;5.738;2023-03-14T01:43:24;15.57;;;1.67;;
61391;SDS011;47261;52.892;5.738;2023-03-14T01:54:01;12.95;;;1.60;;
61391;SDS011;47261;52.892;5.738;2023-03-14T01:56:31;13.00;;;2.20;;
61391;SDS011;47261;52.892;5.738;2023-03-14T01:58:57;13.70;;;1.77;;
61391;SDS011;47261;52.892;5.738;2023-03-14T02:01:24;12.65;;;1.75;;
61391;SDS011;47261;52.892;5.738;2023-03-14T02:03:52;17.45;;;1.73;;
61391;SDS011;47261;52.892;5.738;2023-03-14T02:06:21;11.80;;;1.60;;
61391;SDS011;47261;52.892;5.738;2023-03-14T02:08:50;8.53;;;1.27;;
61391;SDS011;47261;52.892;5.738;2023-03-14T02:11:17;10.88;;;1.63;;
61391;SDS011;47261;52.892;5.738;2023-03-14T02:13:43;8.45;;;1.60;;
61391;SDS011;47261;52.892;5.738;2023-03-14T02:16:09;15.85;;;1.90;;
61391;SDS011;47261;52.892;5.738;2023-03-14T02:18:35;8.30;;;1.47;;
61391;SDS011;47261;52.892;5.738;2023-03-14T02:23:53;11.00;;;1.38;;
61391;SDS011;47261;52.892;5.738;2023-03-14T02:29:30;8.63;;;1.52;;
61391;SDS011;47261;52.892;5.738;2023-03-14T02:32:01;14.17;;;1.30;;
61391;SDS011;47261;52.892;5.738;2023-03-14T02:34:27;10.40;;;2.10;;
61391;SDS011;47261;52.892;5.738;2023-03-14T02:36:53;7.70;;;1.45;;
61391;SDS011;47261;52.892;5.738;2023-03-14T02:39:24;9.27;;;1.50;;
61391;SDS011;47261;52.892;5.738;2023-03-14T02:41:57;11.77;;;1.98;;
61391;SDS011;47261;52.892;5.738;2023-03-14T02:44:23;10.17;;;1.50;;
61391;SDS011;47261;52.892;5.738;2023-03-14T02:46:48;12.33;;;1.70;;
61391;SDS011;47261;52.892;5.738;2023-03-14T02:49:14;15.55;;;2.58;;
61391;SDS011;47261;52.892;5.738;2023-03-14T02:51:41;12.45;;;1.10;;
61391;SDS011;47261;52.892;5.738;2023-03-14T02:54:09;11.57;;;2.15;;
61391;SDS011;47261;52.892;5.738;2023-03-14T02:56:35;12.17;;;1.93;;
61391;SDS011;47261;52.892;5.738;2023-03-14T02:59:05;13.70;;;2.28;;
61391;SDS011;47261;52.892;5.738;2023-03-14T03:01:31;18.70;;;2.67;;
61391;SDS011;47261;52.892;5.738;2023-03-14T03:03:56;16.83;;;2.20;;
61391;SDS011;47261;52.892;5.738;2023-03-14T03:06:22;15.47;;;1.73;;
61391;SDS011;47261;52.892;5.738;2023-03-14T03:08:48;19.20;;;1.93;;
61391;SDS011;47261;52.892;5.738;2023-03-14T03:11:13;15.90;;;3.00;;
61391;SDS011;47261;52.892;5.738;2023-03-14T03:13:39;18.43;;;2.93;;
61391;SDS011;47261;52.892;5.738;2023-03-14T03:16:04;17.20;;;2.45;;
61391;SDS011;47261;52.892;5.738;2023-03-14T03:18:30;13.57;;;2.13;;
61391;SDS011;47261;52.892;5.738;2023-03-14T03:20:59;24.08;;;2.97;;
61391;SDS011;47261;52.892;5.738;2023-03-14T03:23:26;22.55;;;4.05;;
61391;SDS011;47261;52.892;5.738;2023-03-14T03:25:52;20.57;;;2.90;;
61391;SDS011;47261;52.892;5.738;2023-03-14T03:28:18;15.65;;;2.70;;
61391;SDS011;47261;52.892;5.738;2023-03-14T03:30:44;9.30;;;1.80;;
61391;SDS011;47261;52.892;5.738;2023-03-14T03:33:10;21.45;;;3.47;;
61391;SDS011;47261;52.892;5.738;2023-03-14T03:35:45;18.92;;;3.58;;
61391;SDS011;47261;52.892;5.738;2023-03-14T03:38:13;17.75;;;2.13;;
61391;SDS011;47261;52.892;5.738;2023-03-14T03:40:39;17.60;;;3.43;;
61391;SDS011;47261;52.892;5.738;2023-03-14T03:43:05;20.98;;;3.13;;
61391;SDS011;47261;52.892;5.738;2023-03-14T03:45:31;14.90;;;2.13;;
61391;SDS011;47261;52.892;5.738;2023-03-14T03:47:56;17.48;;;2.15;;
61391;SDS011;47261;52.892;5.738;2023-03-14T03:50:22;13.70;;;2.90;;
61391;SDS011;47261;52.892;5.738;2023-03-14T03:52:47;16.33;;;2.60;;
61391;SDS011;47261;52.892;5.738;2023-03-14T03:55:13;16.00;;;1.97;;
61391;SDS011;47261;52.892;5.738;2023-03-14T03:57:39;16.15;;;2.08;;
61391;SDS011;47261;52.892;5.738;2023-03-14T04:00:05;14.20;;;2.57;;
61391;SDS011;47261;52.892;5.738;2023-03-14T04:02:32;16.40;;;2.40;;
61391;SDS011;47261;52.892;5.738;2023-03-14T04:04:58;10.03;;;2.07;;
61391;SDS011;47261;52.892;5.738;2023-03-14T04:07:23;10.43;;;1.60;;
61391;SDS011;47261;52.892;5.738;2023-03-14T04:09:49;8.10;;;1.83;;
61391;SDS011;47261;52.892;5.738;2023-03-14T04:12:14;8.33;;;1.87;;
61391;SDS011;47261;52.892;5.738;2023-03-14T04:14:40;16.10;;;3.15;;
61391;SDS011;47261;52.892;5.738;2023-03-14T04:17:06;16.87;;;2.67;;
61391;SDS011;47261;52.892;5.738;2023-03-14T04:19:32;13.85;;;2.38;;
61391;SDS011;47261;52.892;5.738;2023-03-14T04:21:58;7.93;;;1.90;;
61391;SDS011;47261;52.892;5.738;2023-03-14T04:24:23;13.53;;;2.27;;
61391;SDS011;47261;52.892;5.738;2023-03-14T04:26:49;12.40;;;2.70;;
61391;SDS011;47261;52.892;5.738;2023-03-14T04:29:15;8.80;;;1.80;;
61391;SDS011;47261;52.892;5.738;2023-03-14T04:31:41;13.77;;;2.78;;
61391;SDS011;47261;52.892;5.738;2023-03-14T04:34:06;16.67;;;2.97;;
61391;SDS011;47261;52.892;5.738;2023-03-14T04:36:32;5.53;;;1.70;;
61391;SDS011;47261;52.892;5.738;2023-03-14T04:38:58;15.13;;;3.20;;
61391;SDS011;47261;52.892;5.738;2023-03-14T04:41:23;12.73;;;2.95;;
61391;SDS011;47261;52.892;5.738;2023-03-14T04:43:49;12.43;;;2.80;;
61391;SDS011;47261;52.892;5.738;2023-03-14T04:46:15;12.10;;;2.27;;
61391;SDS011;47261;52.892;5.738;2023-03-14T04:48:40;7.60;;;1.75;;
61391;SDS011;47261;52.892;5.738;2023-03-14T04:51:06;10.93;;;2.37;;
61391;SDS011;47261;52.892;5.738;2023-03-14T04:53:32;10.68;;;2.97;;
61391;SDS011;47261;52.892;5.738;2023-03-14T04:55:59;13.00;;;2.97;;
61391;SDS011;47261;52.892;5.738;2023-03-14T04:58:24;15.50;;;2.90;;
61391;SDS011;47261;52.892;5.738;2023-03-14T05:00:50;10.80;;;2.83;;
61391;SDS011;47261;52.892;5.738;2023-03-14T05:03:16;11.43;;;3.08;;
61391;SDS011;47261;52.892;5.738;2023-03-14T05:05:43;9.77;;;2.65;;
61391;SDS011;47261;52.892;5.738;2023-03-14T05:08:09;14.27;;;3.80;;
61391;SDS011;47261;52.892;5.738;2023-03-14T05:10:35;20.63;;;4.53;;
61391;SDS011;47261;52.892;5.738;2023-03-14T05:13:01;15.15;;;3.65;;
61391;SDS011;47261;52.892;5.738;2023-03-14T05:15:27;12.00;;;2.50;;
61391;SDS011;47261;52.892;5.738;2023-03-14T05:17:53;10.23;;;3.37;;
61391;SDS011;47261;52.892;5.738;2023-03-14T05:20:19;9.38;;;2.60;;
61391;SDS011;47261;52.892;5.738;2023-03-14T05:22:45;11.85;;;4.32;;
61391;SDS011;47261;52.892;5.738;2023-03-14T05:25:11;17.83;;;5.28;;
61391;SDS011;47261;52.892;5.738;2023-03-14T05:27:37;13.07;;;3.63;;
61391;SDS011;47261;52.892;5.738;2023-03-14T05:30:03;12.33;;;3.43;;
61391;SDS011;47261;52.892;5.738;2023-03-14T05:32:30;12.93;;;4.50;;
61391;SDS011;47261;52.892;5.738;2023-03-14T05:34:56;12.27;;;3.15;;
61391;SDS011;47261;52.892;5.738;2023-03-14T05:37:24;15.98;;;3.60;;
61391;SDS011;47261;52.892;5.738;2023-03-14T05:39:51;8.00;;;2.83;;
61391;SDS011;47261;52.892;5.738;2023-03-14T05:42:16;16.00;;;3.07;;
61391;SDS011;47261;52.892;5.738;2023-03-14T05:44:42;13.87;;;3.73;;
61391;SDS011;47261;52.892;5.738;2023-03-14T05:47:07;13.57;;;3.47;;
61391;SDS011;47261;52.892;5.738;2023-03-14T05:49:33;9.10;;;2.90;;
61391;SDS011;47261;52.892;5.738;2023-03-14T05:51:59;14.43;;;4.30;;
61391;SDS011;47261;52.892;5.738;2023-03-14T05:54:24;10.53;;;3.07;;
61391;SDS011;47261;52.892;5.738;2023-03-14T05:56:50;13.90;;;3.13;;
61391;SDS011;47261;52.892;5.738;2023-03-14T05:59:16;14.27;;;3.23;;
61391;SDS011;47261;52.892;5.738;2023-03-14T06:01:41;11.97;;;3.60;;
61391;SDS011;47261;52.892;5.738;2023-03-14T06:04:07;11.00;;;2.38;;
61391;SDS011;47261;52.892;5.738;2023-03-14T06:06:33;4.40;;;1.10;;
61391;SDS011;47261;52.892;5.738;2023-03-14T06:08:58;11.50;;;1.08;;
61391;SDS011;47261;52.892;5.738;2023-03-14T06:11:24;8.93;;;1.43;;
61391;SDS011;47261;52.892;5.738;2023-03-14T06:13:50;6.25;;;0.93;;
61391;SDS011;47261;52.892;5.738;2023-03-14T06:16:16;9.15;;;0.85;;
61391;SDS011;47261;52.892;5.738;2023-03-14T06:18:41;10.13;;;0.90;;
61391;SDS011;47261;52.892;5.738;2023-03-14T06:21:07;8.45;;;0.80;;
61391;SDS011;47261;52.892;5.738;2023-03-14T06:23:33;6.87;;;0.60;;
61391;SDS011;47261;52.892;5.738;2023-03-14T06:25:58;3.15;;;0.30;;
61391;SDS011;47261;52.892;5.738;2023-03-14T06:28:24;5.53;;;0.40;;
61391;SDS011;47261;52.892;5.738;2023-03-14T06:30:50;7.10;;;0.47;;
61391;SDS011;47261;52.892;5.738;2023-03-14T06:33:15;6.03;;;0.53;;
61391;SDS011;47261;52.892;5.738;2023-03-14T06:35:41;7.20;;;0.40;;
61391;SDS011;47261;52.892;5.738;2023-03-14T06:38:07;8.50;;;0.80;;
61391;SDS011;47261;52.892;5.738;2023-03-14T06:40:32;5.97;;;0.40;;
61391;SDS011;47261;52.892;5.738;2023-03-14T06:42:58;4.20;;;0.55;;
61391;SDS011;47261;52.892;5.738;2023-03-14T06:45:24;13.40;;;0.73;;
61391;SDS011;47261;52.892;5.738;2023-03-14T06:47:49;9.33;;;0.40;;
61391;SDS011;47261;52.892;5.738;2023-03-14T06:50:15;7.20;;;0.40;;
61391;SDS011;47261;52.892;5.738;2023-03-14T06:52:41;5.47;;;0.90;;
61391;SDS011;47261;52.892;5.738;2023-03-14T06:55:11;9.57;;;1.10;;
61391;SDS011;47261;52.892;5.738;2023-03-14T06:57:36;13.50;;;0.73;;
61391;SDS011;47261;52.892;5.738;2023-03-14T07:00:03;2.90;;;0.30;;
61391;SDS011;47261;52.892;5.738;2023-03-14T07:02:29;9.63;;;0.30;;
61391;SDS011;47261;52.892;5.738;2023-03-14T07:04:55;6.63;;;0.40;;
61391;SDS011;47261;52.892;5.738;2023-03-14T07:07:21;11.68;;;0.40;;
61391;SDS011;47261;52.892;5.738;2023-03-14T07:09:46;9.13;;;0.50;;
61391;SDS011;47261;52.892;5.738;2023-03-14T07:12:12;5.18;;;0.30;;
61391;SDS011;47261;52.892;5.738;2023-03-14T07:14:37;8.63;;;0.43;;
61391;SDS011;47261;52.892;5.738;2023-03-14T07:17:03;2.73;;;0.20;;
61391;SDS011;47261;52.892;5.738;2023-03-14T07:19:29;3.00;;;0.40;;
61391;SDS011;47261;52.892;5.738;2023-03-14T07:21:54;3.33;;;0.20;;
61391;SDS011;47261;52.892;5.738;2023-03-14T07:24:20;4.30;;;0.30;;
61391;SDS011;47261;52.892;5.738;2023-03-14T07:26:46;4.17;;;0.27;;
61391;SDS011;47261;52.892;5.738;2023-03-14T07:29:11;8.18;;;0.45;;
61391;SDS011;47261;52.892;5.738;2023-03-14T07:31:37;2.93;;;0.20;;
61391;SDS011;47261;52.892;5.738;2023-03-14T07:34:03;10.90;;;0.55;;
61391;SDS011;47261;52.892;5.738;2023-03-14T07:36:28;3.40;;;0.10;;
61391;SDS011;47261;52.892;5.738;2023-03-14T07:38:54;8.83;;;0.47;;
61391;SDS011;47261;52.892;5.738;2023-03-14T07:41:19;2.35;;;0.32;;
61391;SDS011;47261;52.892;5.738;2023-03-14T07:43:46;1.60;;;0.23;;
61391;SDS011;47261;52.892;5.738;2023-03-14T07:46:11;8.52;;;0.30;;
61391;SDS011;47261;52.892;5.738;2023-03-14T07:48:37;4.70;;;0.20;;
61391;SDS011;47261;52.892;5.738;2023-03-14T07:51:03;9.13;;;0.53;;
61391;SDS011;47261;52.892;5.738;2023-03-14T07:53:28;4.88;;;0.30;;
61391;SDS011;47261;52.892;5.738;2023-03-14T07:55:54;3.63;;;0.30;;
61391;SDS011;47261;52.892;5.738;2023-03-14T07:58:20;3.45;;;0.57;;
61391;SDS011;47261;52.892;5.738;2023-03-14T08:00:49;5.40;;;0.20;;
61391;SDS011;47261;52.892;5.738;2023-03-14T08:03:15;10.63;;;0.50;;
61391;SDS011;47261;52.892;5.738;2023-03-14T08:05:41;7.18;;;0.43;;
61391;SDS011;47261;52.892;5.738;2023-03-14T08:08:08;3.55;;;0.40;;
61391;SDS011;47261;52.892;5.738;2023-03-14T08:10:33;8.43;;;0.93;;
61391;SDS011;47261;52.892;5.738;2023-03-14T08:12:59;12.35;;;1.08;;
61391;SDS011;47261;52.892;5.738;2023-03-14T08:15:26;8.25;;;0.85;;
61391;SDS011;47261;52.892;5.738;2023-03-14T08:17:54;8.93;;;0.90;;
61391;SDS011;47261;52.892;5.738;2023-03-14T08:20:20;4.55;;;0.43;;
61391;SDS011;47261;52.892;5.738;2023-03-14T08:22:48;11.20;;;0.70;;
61391;SDS011;47261;52.892;5.738;2023-03-14T08:25:14;4.88;;;0.30;;
61391;SDS011;47261;52.892;5.738;2023-03-14T08:27:40;8.93;;;0.80;;
61391;SDS011;47261;52.892;5.738;2023-03-14T08:30:07;14.05;;;0.93;;
61391;SDS011;47261;52.892;5.738;2023-03-14T08:32:37;11.07;;;1.10;;
61391;SDS011;47261;52.892;5.738;2023-03-14T08:35:03;6.63;;;0.47;;
61391;SDS011;47261;52.892;5.738;2023-03-14T08:37:33;19.10;;;1.20;;
61391;SDS011;47261;52.892;5.738;2023-03-14T08:40:00;11.77;;;0.80;;
61391;SDS011;47261;52.892;5.738;2023-03-14T08:42:26;9.00;;;0.55;;
61391;SDS011;47261;52.892;5.738;2023-03-14T08:44:52;7.63;;;1.00;;
61391;SDS011;47261;52.892;5.738;2023-03-14T08:47:18;9.25;;;1.02;;
61391;SDS011;47261;52.892;5.738;2023-03-14T08:49:44;10.18;;;0.85;;
61391;SDS011;47261;52.892;5.738;2023-03-14T08:52:09;5.97;;;0.50;;
61391;SDS011;47261;52.892;5.738;2023-03-14T08:54:35;13.52;;;1.23;;
61391;SDS011;47261;52.892;5.738;2023-03-14T08:57:01;25.63;;;2.07;;
61391;SDS011;47261;52.892;5.738;2023-03-14T08:59:26;13.88;;;0.90;;
61391;SDS011;47261;52.892;5.738;2023-03-14T09:01:52;13.27;;;1.00;;
61391;SDS011;47261;52.892;5.738;2023-03-14T09:04:19;14.25;;;1.40;;
61391;SDS011;47261;52.892;5.738;2023-03-14T09:06:45;10.85;;;1.45;;
61391;SDS011;47261;52.892;5.738;2023-03-14T09:09:11;11.10;;;1.27;;
61391;SDS011;47261;52.892;5.738;2023-03-14T09:11:38;14.32;;;0.93;;
61391;SDS011;47261;52.892;5.738;2023-03-14T09:14:04;16.50;;;1.17;;
61391;SDS011;47261;52.892;5.738;2023-03-14T09:16:29;15.83;;;1.57;;
61391;SDS011;47261;52.892;5.738;2023-03-14T09:18:55;15.52;;;1.40;;
61391;SDS011;47261;52.892;5.738;2023-03-14T09:21:24;9.27;;;1.13;;
61391;SDS011;47261;52.892;5.738;2023-03-14T09:23:50;15.00;;;1.50;;
61391;SDS011;47261;52.892;5.738;2023-03-14T09:26:16;9.15;;;0.93;;
61391;SDS011;47261;52.892;5.738;2023-03-14T09:28:42;9.13;;;1.10;;
61391;SDS011;47261;52.892;5.738;2023-03-14T09:31:08;8.93;;;0.70;;
61391;SDS011;47261;52.892;5.738;2023-03-14T09:33:35;13.18;;;0.98;;
61391;SDS011;47261;52.892;5.738;2023-03-14T09:36:01;10.27;;;1.33;;
61391;SDS011;47261;52.892;5.738;2023-03-14T09:38:27;12.20;;;0.85;;
61391;SDS011;47261;52.892;5.738;2023-03-14T09:40:53;12.77;;;0.93;;
61391;SDS011;47261;52.892;5.738;2023-03-14T09:43:20;15.48;;;1.92;;
61391;SDS011;47261;52.892;5.738;2023-03-14T09:45:47;16.20;;;1.67;;
61391;SDS011;47261;52.892;5.738;2023-03-14T09:48:16;13.57;;;1.80;;
61391;SDS011;47261;52.892;5.738;2023-03-14T09:50:46;12.90;;;1.10;;
61391;SDS011;47261;52.892;5.738;2023-03-14T09:53:18;10.57;;;1.87;;
61391;SDS011;47261;52.892;5.738;2023-03-14T09:55:49;13.70;;;1.52;;
61391;SDS011;47261;52.892;5.738;2023-03-14T09:58:20;16.75;;;1.65;;
61391;SDS011;47261;52.892;5.738;2023-03-14T10:00:47;10.02;;;1.10;;
61391;SDS011;47261;52.892;5.738;2023-03-14T10:05:51;9.73;;;1.27;;
61391;SDS011;47261;52.892;5.738;2023-03-14T10:08:17;17.77;;;1.80;;
61391;SDS011;47261;52.892;5.738;2023-03-14T10:10:43;13.43;;;1.42;;
61391;SDS011;47261;52.892;5.738;2023-03-14T10:13:21;17.80;;;1.47;;
61391;SDS011;47261;52.892;5.738;2023-03-14T10:15:58;10.98;;;1.00;;
61391;SDS011;47261;52.892;5.738;2023-03-14T10:18:32;11.85;;;0.82;;
61391;SDS011;47261;52.892;5.738;2023-03-14T10:21:09;11.00;;;1.10;;
61391;SDS011;47261;52.892;5.738;2023-03-14T10:23:45;8.00;;;1.30;;
61391;SDS011;47261;52.892;5.738;2023-03-14T10:26:13;7.65;;;0.90;;
61391;SDS011;47261;52.892;5.738;2023-03-14T10:28:44;12.48;;;1.83;;
61391;SDS011;47261;52.892;5.738;2023-03-14T10:31:13;6.73;;;1.03;;
61391;SDS011;47261;52.892;5.738;2023-03-14T10:33:39;9.07;;;0.90;;
61391;SDS011;47261;52.892;5.738;2023-03-14T10:36:06;5.78;;;0.60;;
61391;SDS011;47261;52.892;5.738;2023-03-14T10:38:48;8.35;;;1.00;;
61391;SDS011;47261;52.892;5.738;2023-03-14T10:41:24;11.93;;;0.83;;
61391;SDS011;47261;52.892;5.738;2023-03-14T10:43:56;4.82;;;0.65;;
61391;SDS011;47261;52.892;5.738;2023-03-14T10:46:23;8.23;;;1.10;;
61391;SDS011;47261;52.892;5.738;2023-03-14T10:48:51;8.07;;;0.80;;
61391;SDS011;47261;52.892;5.738;2023-03-14T10:51:19;8.00;;;0.55;;
61391;SDS011;47261;52.892;5.738;2023-03-14T10:56:37;4.90;;;0.60;;
61391;SDS011;47261;52.892;5.738;2023-03-14T10:59:04;12.02;;;1.02;;
61391;SDS011;47261;52.892;5.738;2023-03-14T11:07:38;9.18;;;0.90;;
61391;SDS011;47261;52.892;5.738;2023-03-14T11:10:11;7.63;;;0.60;;
61391;SDS011;47261;52.892;5.738;2023-03-14T11:12:56;12.90;;;1.25;;
61391;SDS011;47261;52.892;5.738;2023-03-14T11:29:33;4.80;;;0.60;;
61391;SDS011;47261;52.892;5.738;2023-03-14T11:32:13;4.30;;;0.45;;
61391;SDS011;47261;52.892;5.738;2023-03-14T11:34:56;5.28;;;0.60;;
61391;SDS011;47261;52.892;5.738;2023-03-14T11:37:26;5.10;;;0.63;;
61391;SDS011;47261;52.892;5.738;2023-03-14T11:40:02;6.18;;;0.55;;
61391;SDS011;47261;52.892;5.738;2023-03-14T11:42:42;8.97;;;0.53;;
61391;SDS011;47261;52.892;5.738;2023-03-14T11:45:19;8.68;;;0.63;;
61391;SDS011;47261;52.892;5.738;2023-03-14T11:48:06;3.67;;;0.40;;
61391;SDS011;47261;52.892;5.738;2023-03-14T11:50:52;7.45;;;0.57;;
61391;SDS011;47261;52.892;5.738;2023-03-14T11:59:33;5.78;;;0.60;;
61391;SDS011;47261;52.892;5.738;2023-03-14T12:05:27;6.53;;;1.02;;
61391;SDS011;47261;52.892;5.738;2023-03-14T12:10:45;9.90;;;1.00;;
61391;SDS011;47261;52.892;5.738;2023-03-14T12:13:16;7.40;;;0.63;;
61391;SDS011;47261;52.892;5.738;2023-03-14T12:15:47;7.53;;;0.80;;
61391;SDS011;47261;52.892;5.738;2023-03-14T12:20:53;16.70;;;0.90;;
61391;SDS011;47261;52.892;5.738;2023-03-14T12:23:22;7.80;;;0.80;;
61391;SDS011;47261;52.892;5.738;2023-03-14T12:26:05;7.88;;;0.60;;
61391;SDS011;47261;52.892;5.738;2023-03-14T12:28:38;7.10;;;1.23;;
61391;SDS011;47261;52.892;5.738;2023-03-14T12:34:31;3.08;;;0.30;;
61391;SDS011;47261;52.892;5.738;2023-03-14T12:39:56;7.25;;;0.47;;
61391;SDS011;47261;52.892;5.738;2023-03-14T12:50:54;6.90;;;0.60;;
61391;SDS011;47261;52.892;5.738;2023-03-14T13:02:00;8.85;;;0.63;;
61391;SDS011;47261;52.892;5.738;2023-03-14T13:07:11;13.55;;;1.10;;
61391;SDS011;47261;52.892;5.738;2023-03-14T13:09:49;14.13;;;0.90;;
61391;SDS011;47261;52.892;5.738;2023-03-14T13:15:47;6.55;;;0.63;;
61391;SDS011;47261;52.892;5.738;2023-03-14T13:18:27;5.10;;;0.70;;
61391;SDS011;47261;52.892;5.738;2023-03-14T13:20:55;7.10;;;0.68;;
61391;SDS011;47261;52.892;5.738;2023-03-14T13:23:27;6.53;;;0.65;;
61391;SDS011;47261;52.892;5.738;2023-03-14T13:25:54;7.85;;;0.60;;
61391;SDS011;47261;52.892;5.738;2023-03-14T13:28:21;3.90;;;0.40;;
61391;SDS011;47261;52.892;5.738;2023-03-14T13:30:48;10.00;;;0.87;;
61391;SDS011;47261;52.892;5.738;2023-03-14T13:33:17;5.50;;;0.30;;
61391;SDS011;47261;52.892;5.738;2023-03-14T13:35:46;8.57;;;1.00;;
61391;SDS011;47261;52.892;5.738;2023-03-14T13:38:24;6.45;;;0.73;;
61391;SDS011;47261;52.892;5.738;2023-03-14T13:40:51;6.82;;;1.15;;
61391;SDS011;47261;52.892;5.738;2023-03-14T13:43:25;3.90;;;0.30;;
61391;SDS011;47261;52.892;5.738;2023-03-14T13:45:53;2.40;;;0.40;;
61391;SDS011;47261;52.892;5.738;2023-03-14T13:48:26;6.45;;;0.68;;
61391;SDS011;47261;52.892;5.738;2023-03-14T13:51:01;4.13;;;0.40;;
61391;SDS011;47261;52.892;5.738;2023-03-14T13:53:31;8.05;;;0.80;;
61391;SDS011;47261;52.892;5.738;2023-03-14T13:56:08;4.90;;;0.40;;
61391;SDS011;47261;52.892;5.738;2023-03-14T13:58:35;4.68;;;0.63;;
61391;SDS011;47261;52.892;5.738;2023-03-14T14:01:10;5.47;;;0.60;;
61391;SDS011;47261;52.892;5.738;2023-03-14T14:03:42;5.45;;;0.55;;
61391;SDS011;47261;52.892;5.738;2023-03-14T14:06:19;6.55;;;0.80;;
61391;SDS011;47261;52.892;5.738;2023-03-14T14:08:53;8.10;;;0.70;;
61391;SDS011;47261;52.892;5.738;2023-03-14T14:11:30;7.05;;;0.70;;
61391;SDS011;47261;52.892;5.738;2023-03-14T14:14:05;5.05;;;0.50;;
61391;SDS011;47261;52.892;5.738;2023-03-14T14:16:34;6.78;;;0.50;;
61391;SDS011;47261;52.892;5.738;2023-03-14T14:19:00;8.47;;;1.00;;
61391;SDS011;47261;52.892;5.738;2023-03-14T14:21:27;5.63;;;0.50;;
61391;SDS011;47261;52.892;5.738;2023-03-14T14:23:53;7.45;;;0.70;;
61391;SDS011;47261;52.892;5.738;2023-03-14T14:26:19;12.70;;;0.88;;
61391;SDS011;47261;52.892;5.738;2023-03-14T14:28:45;14.17;;;1.10;;
61391;SDS011;47261;52.892;5.738;2023-03-14T14:33:43;8.35;;;1.20;;
61391;SDS011;47261;52.892;5.738;2023-03-14T14:36:18;10.10;;;0.60;;
61391;SDS011;47261;52.892;5.738;2023-03-14T14:41:50;8.70;;;1.17;;
61391;SDS011;47261;52.892;5.738;2023-03-14T14:44:18;4.93;;;0.77;;
61391;SDS011;47261;52.892;5.738;2023-03-14T14:46:53;10.18;;;1.00;;
61391;SDS011;47261;52.892;5.738;2023-03-14T14:49:21;2.40;;;0.45;;
61391;SDS011;47261;52.892;5.738;2023-03-14T14:51:59;9.07;;;1.20;;
61391;SDS011;47261;52.892;5.738;2023-03-14T14:54:34;5.18;;;0.25;;
61391;SDS011;47261;52.892;5.738;2023-03-14T14:57:12;3.83;;;0.77;;
61391;SDS011;47261;52.892;5.738;2023-03-14T14:59:43;10.48;;;0.63;;
61391;SDS011;47261;52.892;5.738;2023-03-14T15:02:16;4.83;;;0.60;;
61391;SDS011;47261;52.892;5.738;2023-03-14T15:04:52;4.43;;;0.55;;
61391;SDS011;47261;52.892;5.738;2023-03-14T15:07:18;7.80;;;0.82;;
61391;SDS011;47261;52.892;5.738;2023-03-14T15:09:43;6.80;;;0.93;;
61391;SDS011;47261;52.892;5.738;2023-03-14T15:12:09;4.93;;;0.67;;
61391;SDS011;47261;52.892;5.738;2023-03-14T15:14:35;5.50;;;0.63;;
61391;SDS011;47261;52.892;5.738;2023-03-14T15:17:00;5.20;;;0.50;;
61391;SDS011;47261;52.892;5.738;2023-03-14T15:19:26;7.80;;;0.63;;
61391;SDS011;47261;52.892;5.738;2023-03-14T15:21:54;4.90;;;0.52;;
61391;SDS011;47261;52.892;5.738;2023-03-14T15:24:20;7.33;;;0.60;;
61391;SDS011;47261;52.892;5.738;2023-03-14T15:26:46;7.05;;;0.47;;
61391;SDS011;47261;52.892;5.738;2023-03-14T15:29:11;20.83;;;0.95;;
61391;SDS011;47261;52.892;5.738;2023-03-14T15:31:38;5.83;;;0.57;;
61391;SDS011;47261;52.892;5.738;2023-03-14T15:34:04;10.63;;;0.55;;
61391;SDS011;47261;52.892;5.738;2023-03-14T15:36:31;7.38;;;0.80;;
61391;SDS011;47261;52.892;5.738;2023-03-14T15:38:58;11.80;;;0.70;;
61391;SDS011;47261;52.892;5.738;2023-03-14T15:41:25;9.02;;;0.75;;
61391;SDS011;47261;52.892;5.738;2023-03-14T15:43:51;6.70;;;0.73;;
61391;SDS011;47261;52.892;5.738;2023-03-14T15:46:17;8.17;;;0.57;;
61391;SDS011;47261;52.892;5.738;2023-03-14T15:48:44;8.57;;;0.80;;
61391;SDS011;47261;52.892;5.738;2023-03-14T15:51:10;7.43;;;0.70;;
61391;SDS011;47261;52.892;5.738;2023-03-14T15:53:36;13.00;;;0.82;;
61391;SDS011;47261;52.892;5.738;2023-03-14T15:56:03;5.50;;;0.77;;
61391;SDS011;47261;52.892;5.738;2023-03-14T15:58:30;6.32;;;0.95;;
61391;SDS011;47261;52.892;5.738;2023-03-14T16:00:59;4.10;;;0.57;;
61391;SDS011;47261;52.892;5.738;2023-03-14T16:03:25;5.75;;;0.60;;
61391;SDS011;47261;52.892;5.738;2023-03-14T16:05:51;14.18;;;1.00;;
61391;SDS011;47261;52.892;5.738;2023-03-14T16:08:17;8.27;;;0.77;;
61391;SDS011;47261;52.892;5.738;2023-03-14T16:10:43;4.63;;;0.53;;
61391;SDS011;47261;52.892;5.738;2023-03-14T16:13:09;8.57;;;0.80;;